sensor_id;sensor_type;location;lat;lon;timestamp;pressure;altitude;pressure_sealevel;temperature;humidity
13968;BME280;39536;52.198;9.920;2023-05-07T00:00:22;101099.31;;;11.15;100.00
13968;BME280;39536;52.198;9.920;2023-05-07T00:02:51;101103.34;;;11.27;100.00
13968;BME280;39536;52.198;9.920;2023-05-07T00:05:17;101102.34;;;11.32;100.00
13968;BME280;39536;52.198;9.920;2023-05-07T00:07:44;101105.94;;;11.28;100.00
13968;BME280;39536;52.198;9.920;2023-05-07T00:10:10;101105.41;;;11.16;100.00
13968;BME280;39536;52.198;9.920;2023-05-07T00:12:38;101099.13;;;11.23;100.00
13968;BME280;39536;52.198;9.920;2023-05-07T00:15:06;101100.97;;;11.19;100.00
13968;BME280;39536;52.198;9.920;2023-05-07T00:17:33;101094.91;;;11.17;100.00
13968;BME280;39536;52.198;9.920;2023-05-07T00:20:01;101093.16;;;11.18;100.00
13968;BME280;39536;52.198;9.920;2023-05-07T00:22:28;101095.81;;;11.16;100.00
13968;BME280;39536;52.198;9.920;2023-05-07T00:24:55;101092.22;;;11.20;100.00
13968;BME280;39536;52.198;9.920;2023-05-07T00:27:21;101094.09;;;11.15;100.00
13968;BME280;39536;52.198;9.920;2023-05-07T00:29:48;101088.88;;;11.15;100.00
13968;BME280;39536;52.198;9.920;2023-05-07T00:32:15;101077.88;;;11.04;100.00
13968;BME280;39536;52.198;9.920;2023-05-07T00:34:42;101076.09;;;11.06;100.00
13968;BME280;39536;52.198;9.920;2023-05-07T00:37:10;101070.31;;;10.93;100.00
13968;BME280;39536;52.198;9.920;2023-05-07T00:39:37;101075.38;;;10.99;100.00
13968;BME280;39536;52.198;9.920;2023-05-07T00:42:04;101063.09;;;11.04;100.00
13968;BME280;39536;52.198;9.920;2023-05-07T00:44:30;101070.97;;;11.03;100.00
13968;BME280;39536;52.198;9.920;2023-05-07T00:46:57;101067.63;;;10.98;100.00
13968;BME280;39536;52.198;9.920;2023-05-07T00:49:29;101062.66;;;10.87;100.00
13968;BME280;39536;52.198;9.920;2023-05-07T00:52:01;101066.44;;;10.75;100.00
13968;BME280;39536;52.198;9.920;2023-05-07T00:54:29;101068.22;;;10.75;100.00
13968;BME280;39536;52.198;9.920;2023-05-07T00:56:56;101080.44;;;10.71;100.00
13968;BME280;39536;52.198;9.920;2023-05-07T00:59:23;101083.00;;;10.73;100.00
13968;BME280;39536;52.198;9.920;2023-05-07T01:01:49;101080.34;;;10.76;100.00
13968;BME280;39536;52.198;9.920;2023-05-07T01:04:17;101077.81;;;10.71;100.00
13968;BME280;39536;52.198;9.920;2023-05-07T01:06:44;101080.91;;;10.87;100.00
13968;BME280;39536;52.198;9.920;2023-05-07T01:09:11;101075.81;;;10.82;100.00
13968;BME280;39536;52.198;9.920;2023-05-07T01:11:40;101077.72;;;10.76;100.00
13968;BME280;39536;52.198;9.920;2023-05-07T01:14:08;101076.94;;;10.72;100.00
13968;BME280;39536;52.198;9.920;2023-05-07T01:16:36;101080.56;;;10.67;100.00
13968;BME280;39536;52.198;9.920;2023-05-07T01:19:03;101076.03;;;10.75;100.00
13968;BME280;39536;52.198;9.920;2023-05-07T01:21:32;101082.88;;;10.77;100.00
13968;BME280;39536;52.198;9.920;2023-05-07T01:24:00;101087.16;;;10.81;100.00
13968;BME280;39536;52.198;9.920;2023-05-07T01:26:27;101091.38;;;10.85;100.00
13968;BME280;39536;52.198;9.920;2023-05-07T01:28:53;101091.47;;;10.82;100.00
13968;BME280;39536;52.198;9.920;2023-05-07T01:31:20;101091.16;;;10.95;100.00
13968;BME280;39536;52.198;9.920;2023-05-07T01:33:48;101087.00;;;10.88;100.00
13968;BME280;39536;52.198;9.920;2023-05-07T01:36:17;101087.28;;;10.75;100.00
13968;BME280;39536;52.198;9.920;2023-05-07T01:38:45;101092.47;;;10.77;100.00
13968;BME280;39536;52.198;9.920;2023-05-07T01:41:13;101085.78;;;10.65;100.00
13968;BME280;39536;52.198;9.920;2023-05-07T01:43:40;101095.34;;;10.64;100.00
13968;BME280;39536;52.198;9.920;2023-05-07T01:46:08;101086.66;;;10.66;100.00
13968;BME280;39536;52.198;9.920;2023-05-07T01:48:36;101088.25;;;10.71;100.00
13968;BME280;39536;52.198;9.920;2023-05-07T01:51:04;101087.66;;;10.60;100.00
13968;BME280;39536;52.198;9.920;2023-05-07T01:53:35;101078.66;;;10.73;100.00
13968;BME280;39536;52.198;9.920;2023-05-07T01:56:02;101077.25;;;10.60;100.00
13968;BME280;39536;52.198;9.920;2023-05-07T01:58:30;101076.25;;;10.66;100.00
13968;BME280;39536;52.198;9.920;2023-05-07T02:00:56;101086.47;;;10.73;100.00
13968;BME280;39536;52.198;9.920;2023-05-07T02:03:23;101079.78;;;10.63;100.00
13968;BME280;39536;52.198;9.920;2023-05-07T02:05:49;101085.84;;;10.63;100.00
13968;BME280;39536;52.198;9.920;2023-05-07T02:08:16;101086.53;;;10.72;100.00
13968;BME280;39536;52.198;9.920;2023-05-07T02:10:42;101087.53;;;10.66;100.00
13968;BME280;39536;52.198;9.920;2023-05-07T02:13:09;101088.44;;;10.63;100.00
13968;BME280;39536;52.198;9.920;2023-05-07T02:15:37;101088.28;;;10.70;100.00
13968;BME280;39536;52.198;9.920;2023-05-07T02:18:04;101090.19;;;10.63;100.00
13968;BME280;39536;52.198;9.920;2023-05-07T02:20:32;101091.94;;;10.62;100.00
13968;BME280;39536;52.198;9.920;2023-05-07T02:22:58;101096.34;;;10.59;100.00
13968;BME280;39536;52.198;9.920;2023-05-07T02:25:25;101092.81;;;10.61;100.00
13968;BME280;39536;52.198;9.920;2023-05-07T02:27:52;101100.75;;;10.57;100.00
13968;BME280;39536;52.198;9.920;2023-05-07T02:30:18;101107.59;;;10.61;100.00
13968;BME280;39536;52.198;9.920;2023-05-07T02:32:47;101105.81;;;10.63;100.00
13968;BME280;39536;52.198;9.920;2023-05-07T02:35:14;101117.09;;;10.63;100.00
13968;BME280;39536;52.198;9.920;2023-05-07T02:37:40;101111.63;;;10.74;100.00
13968;BME280;39536;52.198;9.920;2023-05-07T02:40:08;101108.25;;;10.71;100.00
13968;BME280;39536;52.198;9.920;2023-05-07T02:42:35;101115.25;;;10.69;100.00
13968;BME280;39536;52.198;9.920;2023-05-07T02:45:01;101114.34;;;10.70;100.00
13968;BME280;39536;52.198;9.920;2023-05-07T02:47:28;101117.06;;;10.65;100.00
13968;BME280;39536;52.198;9.920;2023-05-07T02:49:56;101110.06;;;10.67;100.00
13968;BME280;39536;52.198;9.920;2023-05-07T02:52:22;101111.88;;;10.63;100.00
13968;BME280;39536;52.198;9.920;2023-05-07T02:54:49;101108.50;;;10.60;100.00
13968;BME280;39536;52.198;9.920;2023-05-07T02:57:15;101108.34;;;10.66;100.00
13968;BME280;39536;52.198;9.920;2023-05-07T02:59:42;101111.03;;;10.63;100.00
13968;BME280;39536;52.198;9.920;2023-05-07T03:02:09;101099.91;;;10.56;100.00
13968;BME280;39536;52.198;9.920;2023-05-07T03:04:36;101102.38;;;10.62;100.00
13968;BME280;39536;52.198;9.920;2023-05-07T03:07:03;101099.78;;;10.62;100.00
13968;BME280;39536;52.198;9.920;2023-05-07T03:09:30;101099.00;;;10.57;100.00
13968;BME280;39536;52.198;9.920;2023-05-07T03:11:57;101092.19;;;10.52;100.00
13968;BME280;39536;52.198;9.920;2023-05-07T03:14:23;101088.94;;;10.42;100.00
13968;BME280;39536;52.198;9.920;2023-05-07T03:16:50;101094.94;;;10.46;100.00
13968;BME280;39536;52.198;9.920;2023-05-07T03:19:16;101095.84;;;10.45;100.00
13968;BME280;39536;52.198;9.920;2023-05-07T03:21:43;101095.22;;;10.33;100.00
13968;BME280;39536;52.198;9.920;2023-05-07T03:24:11;101093.38;;;10.38;100.00
13968;BME280;39536;52.198;9.920;2023-05-07T03:26:37;101093.44;;;10.35;100.00
13968;BME280;39536;52.198;9.920;2023-05-07T03:29:04;101096.81;;;10.40;100.00
13968;BME280;39536;52.198;9.920;2023-05-07T03:31:31;101091.88;;;10.28;100.00
13968;BME280;39536;52.198;9.920;2023-05-07T03:33:57;101088.38;;;10.29;100.00
13968;BME280;39536;52.198;9.920;2023-05-07T03:36:24;101083.03;;;10.34;100.00
13968;BME280;39536;52.198;9.920;2023-05-07T03:38:51;101081.47;;;10.27;100.00
13968;BME280;39536;52.198;9.920;2023-05-07T03:41:19;101083.84;;;10.37;100.00
13968;BME280;39536;52.198;9.920;2023-05-07T03:43:46;101084.72;;;10.36;100.00
13968;BME280;39536;52.198;9.920;2023-05-07T03:46:13;101084.78;;;10.33;100.00
13968;BME280;39536;52.198;9.920;2023-05-07T03:48:39;101082.19;;;10.33;100.00
13968;BME280;39536;52.198;9.920;2023-05-07T03:51:06;101095.19;;;10.35;100.00
13968;BME280;39536;52.198;9.920;2023-05-07T03:53:32;101094.34;;;10.34;100.00
13968;BME280;39536;52.198;9.920;2023-05-07T03:55:59;101094.94;;;10.46;100.00
13968;BME280;39536;52.198;9.920;2023-05-07T03:58:27;101090.78;;;10.37;100.00
13968;BME280;39536;52.198;9.920;2023-05-07T04:00:53;101082.97;;;10.37;100.00
13968;BME280;39536;52.198;9.920;2023-05-07T04:03:20;101088.16;;;10.38;100.00
13968;BME280;39536;52.198;9.920;2023-05-07T04:05:47;101094.34;;;10.34;100.00
13968;BME280;39536;52.198;9.920;2023-05-07T04:08:13;101104.00;;;10.29;100.00
13968;BME280;39536;52.198;9.920;2023-05-07T04:10:40;101109.91;;;10.36;100.00
13968;BME280;39536;52.198;9.920;2023-05-07T04:13:07;101110.91;;;10.30;100.00
13968;BME280;39536;52.198;9.920;2023-05-07T04:15:35;101118.78;;;10.27;100.00
13968;BME280;39536;52.198;9.920;2023-05-07T04:18:01;101105.78;;;10.26;100.00
13968;BME280;39536;52.198;9.920;2023-05-07T04:20:28;101112.88;;;10.19;100.00
13968;BME280;39536;52.198;9.920;2023-05-07T04:22:54;101108.66;;;10.13;100.00
13968;BME280;39536;52.198;9.920;2023-05-07T04:25:21;101118.94;;;10.20;100.00
13968;BME280;39536;52.198;9.920;2023-05-07T04:27:51;101112.72;;;10.27;100.00
13968;BME280;39536;52.198;9.920;2023-05-07T04:30:18;101119.28;;;10.43;100.00
13968;BME280;39536;52.198;9.920;2023-05-07T04:32:47;101120.25;;;10.39;100.00
13968;BME280;39536;52.198;9.920;2023-05-07T04:35:14;101128.16;;;10.36;100.00
13968;BME280;39536;52.198;9.920;2023-05-07T04:37:40;101122.16;;;10.32;100.00
13968;BME280;39536;52.198;9.920;2023-05-07T04:40:07;101122.28;;;10.25;100.00
13968;BME280;39536;52.198;9.920;2023-05-07T04:42:35;101137.84;;;10.29;100.00
13968;BME280;39536;52.198;9.920;2023-05-07T04:45:02;101131.84;;;10.24;100.00
13968;BME280;39536;52.198;9.920;2023-05-07T04:47:30;101129.13;;;10.30;100.00
13968;BME280;39536;52.198;9.920;2023-05-07T04:49:58;101132.69;;;10.25;100.00
13968;BME280;39536;52.198;9.920;2023-05-07T04:52:25;101133.66;;;10.21;100.00
13968;BME280;39536;52.198;9.920;2023-05-07T04:54:51;101133.56;;;10.25;100.00
13968;BME280;39536;52.198;9.920;2023-05-07T04:57:18;101144.56;;;10.39;100.00
13968;BME280;39536;52.198;9.920;2023-05-07T04:59:45;101142.97;;;10.32;100.00
13968;BME280;39536;52.198;9.920;2023-05-07T05:02:11;101148.91;;;10.39;100.00
13968;BME280;39536;52.198;9.920;2023-05-07T05:04:38;101151.50;;;10.39;100.00
13968;BME280;39536;52.198;9.920;2023-05-07T05:07:06;101156.78;;;10.36;100.00
13968;BME280;39536;52.198;9.920;2023-05-07T05:09:32;101155.16;;;10.30;100.00
13968;BME280;39536;52.198;9.920;2023-05-07T05:11:59;101148.22;;;10.31;100.00
13968;BME280;39536;52.198;9.920;2023-05-07T05:14:26;101157.78;;;10.30;100.00
13968;BME280;39536;52.198;9.920;2023-05-07T05:16:52;101150.03;;;10.27;100.00
13968;BME280;39536;52.198;9.920;2023-05-07T05:19:19;101158.19;;;10.09;100.00
13968;BME280;39536;52.198;9.920;2023-05-07T05:21:45;101157.06;;;10.22;100.00
13968;BME280;39536;52.198;9.920;2023-05-07T05:24:13;101158.69;;;10.28;100.00
13968;BME280;39536;52.198;9.920;2023-05-07T05:26:40;101163.03;;;10.27;100.00
13968;BME280;39536;52.198;9.920;2023-05-07T05:29:06;101154.41;;;10.25;100.00
13968;BME280;39536;52.198;9.920;2023-05-07T05:31:33;101162.06;;;10.33;100.00
13968;BME280;39536;52.198;9.920;2023-05-07T05:34:00;101160.16;;;10.41;100.00
13968;BME280;39536;52.198;9.920;2023-05-07T05:36:27;101173.91;;;10.48;100.00
13968;BME280;39536;52.198;9.920;2023-05-07T05:38:53;101168.66;;;10.49;100.00
13968;BME280;39536;52.198;9.920;2023-05-07T05:41:21;101171.31;;;10.48;100.00
13968;BME280;39536;52.198;9.920;2023-05-07T05:43:48;101171.22;;;10.51;100.00
13968;BME280;39536;52.198;9.920;2023-05-07T05:46:15;101179.25;;;10.40;100.00
13968;BME280;39536;52.198;9.920;2023-05-07T05:48:41;101176.59;;;10.43;100.00
13968;BME280;39536;52.198;9.920;2023-05-07T05:51:08;101186.03;;;10.49;100.00
13968;BME280;39536;52.198;9.920;2023-05-07T05:53:34;101186.13;;;10.44;100.00
13968;BME280;39536;52.198;9.920;2023-05-07T05:56:02;101187.66;;;10.53;100.00
13968;BME280;39536;52.198;9.920;2023-05-07T05:58:30;101173.00;;;10.49;100.00
13968;BME280;39536;52.198;9.920;2023-05-07T06:00:57;101173.72;;;10.55;100.00
13968;BME280;39536;52.198;9.920;2023-05-07T06:03:24;101173.72;;;10.55;100.00
13968;BME280;39536;52.198;9.920;2023-05-07T06:05:51;101171.75;;;10.65;100.00
13968;BME280;39536;52.198;9.920;2023-05-07T06:08:17;101170.09;;;10.62;100.00
13968;BME280;39536;52.198;9.920;2023-05-07T06:10:45;101164.00;;;10.62;100.00
13968;BME280;39536;52.198;9.920;2023-05-07T06:13:11;101163.16;;;10.61;100.00
13968;BME280;39536;52.198;9.920;2023-05-07T06:15:39;101166.66;;;10.60;100.00
13968;BME280;39536;52.198;9.920;2023-05-07T06:18:06;101181.38;;;10.63;100.00
13968;BME280;39536;52.198;9.920;2023-05-07T06:20:32;101169.06;;;10.70;100.00
13968;BME280;39536;52.198;9.920;2023-05-07T06:22:59;101162.19;;;10.67;100.00
13968;BME280;39536;52.198;9.920;2023-05-07T06:25:25;101171.41;;;10.82;100.00
13968;BME280;39536;52.198;9.920;2023-05-07T06:27:52;101171.31;;;10.85;100.00
13968;BME280;39536;52.198;9.920;2023-05-07T06:30:18;101179.00;;;10.91;100.00
13968;BME280;39536;52.198;9.920;2023-05-07T06:32:46;101179.72;;;10.96;100.00
13968;BME280;39536;52.198;9.920;2023-05-07T06:35:13;101180.69;;;10.94;100.00
13968;BME280;39536;52.198;9.920;2023-05-07T06:37:40;101178.50;;;11.11;100.00
13968;BME280;39536;52.198;9.920;2023-05-07T06:40:08;101180.13;;;11.15;100.00
13968;BME280;39536;52.198;9.920;2023-05-07T06:42:35;101178.44;;;11.14;100.00
13968;BME280;39536;52.198;9.920;2023-05-07T06:45:02;101182.56;;;11.23;100.00
13968;BME280;39536;52.198;9.920;2023-05-07T06:47:29;101185.69;;;11.37;100.00
13968;BME280;39536;52.198;9.920;2023-05-07T06:49:57;101189.88;;;11.43;100.00
13968;BME280;39536;52.198;9.920;2023-05-07T06:52:24;101189.56;;;11.55;100.00
13968;BME280;39536;52.198;9.920;2023-05-07T06:54:51;101185.94;;;11.61;100.00
13968;BME280;39536;52.198;9.920;2023-05-07T06:57:17;101186.44;;;11.75;100.00
13968;BME280;39536;52.198;9.920;2023-05-07T06:59:44;101182.97;;;11.74;100.00
13968;BME280;39536;52.198;9.920;2023-05-07T07:02:11;101192.28;;;11.83;100.00
13968;BME280;39536;52.198;9.920;2023-05-07T07:04:37;101188.66;;;11.90;100.00
13968;BME280;39536;52.198;9.920;2023-05-07T07:07:05;101183.75;;;11.78;100.00
13968;BME280;39536;52.198;9.920;2023-05-07T07:09:32;101192.13;;;11.91;100.00
13968;BME280;39536;52.198;9.920;2023-05-07T07:11:58;101190.06;;;12.02;100.00
13968;BME280;39536;52.198;9.920;2023-05-07T07:14:25;101186.75;;;11.97;100.00
13968;BME280;39536;52.198;9.920;2023-05-07T07:16:52;101190.97;;;12.01;100.00
13968;BME280;39536;52.198;9.920;2023-05-07T07:19:21;101197.97;;;11.99;100.00
13968;BME280;39536;52.198;9.920;2023-05-07T07:21:48;101193.72;;;11.96;100.00
13968;BME280;39536;52.198;9.920;2023-05-07T07:24:15;101193.25;;;12.12;100.00
13968;BME280;39536;52.198;9.920;2023-05-07T07:26:46;101191.28;;;12.21;100.00
13968;BME280;39536;52.198;9.920;2023-05-07T07:29:12;101193.31;;;12.10;100.00
13968;BME280;39536;52.198;9.920;2023-05-07T07:31:39;101199.22;;;12.17;100.00
13968;BME280;39536;52.198;9.920;2023-05-07T07:34:05;101202.41;;;12.28;100.00
13968;BME280;39536;52.198;9.920;2023-05-07T07:36:32;101196.91;;;12.37;100.00
13968;BME280;39536;52.198;9.920;2023-05-07T07:38:59;101195.25;;;12.63;100.00
13968;BME280;39536;52.198;9.920;2023-05-07T07:41:26;101197.91;;;12.61;100.00
13968;BME280;39536;52.198;9.920;2023-05-07T07:43:53;101200.59;;;12.58;100.00
13968;BME280;39536;52.198;9.920;2023-05-07T07:46:20;101202.47;;;12.55;100.00
13968;BME280;39536;52.198;9.920;2023-05-07T07:48:46;101196.28;;;12.57;100.00
13968;BME280;39536;52.198;9.920;2023-05-07T07:51:13;101207.31;;;12.67;100.00
13968;BME280;39536;52.198;9.920;2023-05-07T07:53:39;101207.66;;;12.56;100.00
13968;BME280;39536;52.198;9.920;2023-05-07T07:56:06;101215.50;;;12.56;100.00
13968;BME280;39536;52.198;9.920;2023-05-07T07:58:34;101209.25;;;12.62;100.00
13968;BME280;39536;52.198;9.920;2023-05-07T08:01:03;101210.03;;;12.64;100.00
13968;BME280;39536;52.198;9.920;2023-05-07T08:03:30;101212.16;;;12.51;100.00
13968;BME280;39536;52.198;9.920;2023-05-07T08:05:57;101209.59;;;12.50;100.00
13968;BME280;39536;52.198;9.920;2023-05-07T08:08:24;101213.03;;;12.22;100.00
13968;BME280;39536;52.198;9.920;2023-05-07T08:10:50;101213.97;;;12.19;100.00
13968;BME280;39536;52.198;9.920;2023-05-07T08:13:17;101223.56;;;12.19;100.00
13968;BME280;39536;52.198;9.920;2023-05-07T08:15:45;101221.47;;;12.30;100.00
13968;BME280;39536;52.198;9.920;2023-05-07T08:18:11;101222.22;;;12.35;100.00
13968;BME280;39536;52.198;9.920;2023-05-07T08:20:38;101220.41;;;12.37;100.00
13968;BME280;39536;52.198;9.920;2023-05-07T08:23:06;101218.56;;;12.41;100.00
13968;BME280;39536;52.198;9.920;2023-05-07T08:25:33;101216.16;;;12.33;100.00
13968;BME280;39536;52.198;9.920;2023-05-07T08:28:00;101217.63;;;12.43;100.00
13968;BME280;39536;52.198;9.920;2023-05-07T08:30:26;101212.88;;;12.56;100.00
13968;BME280;39536;52.198;9.920;2023-05-07T08:32:54;101215.13;;;12.68;100.00
13968;BME280;39536;52.198;9.920;2023-05-07T08:35:21;101222.81;;;12.73;100.00
13968;BME280;39536;52.198;9.920;2023-05-07T08:37:48;101221.16;;;12.70;100.00
13968;BME280;39536;52.198;9.920;2023-05-07T08:40:14;101227.19;;;12.73;100.00
13968;BME280;39536;52.198;9.920;2023-05-07T08:42:41;101231.75;;;12.66;100.00
13968;BME280;39536;52.198;9.920;2023-05-07T08:45:10;101231.97;;;12.58;100.00
13968;BME280;39536;52.198;9.920;2023-05-07T08:47:42;101241.94;;;12.45;100.00
13968;BME280;39536;52.198;9.920;2023-05-07T08:50:12;101237.44;;;12.51;100.00
13968;BME280;39536;52.198;9.920;2023-05-07T08:52:39;101239.81;;;12.58;100.00
13968;BME280;39536;52.198;9.920;2023-05-07T08:55:06;101239.72;;;12.61;100.00
13968;BME280;39536;52.198;9.920;2023-05-07T08:57:33;101243.22;;;12.62;100.00
13968;BME280;39536;52.198;9.920;2023-05-07T09:00:00;101240.28;;;12.73;100.00
13968;BME280;39536;52.198;9.920;2023-05-07T09:02:28;101237.28;;;12.85;100.00
13968;BME280;39536;52.198;9.920;2023-05-07T09:04:54;101229.00;;;12.99;100.00
13968;BME280;39536;52.198;9.920;2023-05-07T09:07:22;101232.81;;;12.88;100.00
13968;BME280;39536;52.198;9.920;2023-05-07T09:09:49;101231.78;;;12.94;100.00
13968;BME280;39536;52.198;9.920;2023-05-07T09:12:17;101232.72;;;12.91;100.00
13968;BME280;39536;52.198;9.920;2023-05-07T09:14:43;101234.94;;;13.04;100.00
13968;BME280;39536;52.198;9.920;2023-05-07T09:17:11;101231.41;;;13.05;100.00
13968;BME280;39536;52.198;9.920;2023-05-07T09:19:38;101226.75;;;13.14;100.00
13968;BME280;39536;52.198;9.920;2023-05-07T09:22:05;101228.59;;;13.11;100.00
13968;BME280;39536;52.198;9.920;2023-05-07T09:24:34;101223.66;;;13.02;100.00
13968;BME280;39536;52.198;9.920;2023-05-07T09:27:03;101226.91;;;13.10;100.00
13968;BME280;39536;52.198;9.920;2023-05-07T09:29:30;101231.28;;;13.09;100.00
13968;BME280;39536;52.198;9.920;2023-05-07T09:32:00;101234.31;;;13.24;100.00
13968;BME280;39536;52.198;9.920;2023-05-07T09:34:27;101229.06;;;13.25;100.00
13968;BME280;39536;52.198;9.920;2023-05-07T09:36:54;101231.09;;;13.15;100.00
13968;BME280;39536;52.198;9.920;2023-05-07T09:39:22;101235.66;;;13.09;100.00
13968;BME280;39536;52.198;9.920;2023-05-07T09:41:50;101233.84;;;13.11;100.00
13968;BME280;39536;52.198;9.920;2023-05-07T09:44:20;101232.34;;;13.04;100.00
13968;BME280;39536;52.198;9.920;2023-05-07T09:46:53;101233.94;;;13.08;100.00
13968;BME280;39536;52.198;9.920;2023-05-07T09:49:22;101229.69;;;13.05;100.00
13968;BME280;39536;52.198;9.920;2023-05-07T09:51:50;101234.50;;;13.17;100.00
13968;BME280;39536;52.198;9.920;2023-05-07T09:54:17;101230.66;;;13.01;100.00
13968;BME280;39536;52.198;9.920;2023-05-07T09:56:45;101235.91;;;13.01;100.00
13968;BME280;39536;52.198;9.920;2023-05-07T09:59:15;101230.47;;;13.07;100.00
13968;BME280;39536;52.198;9.920;2023-05-07T10:01:43;101229.06;;;13.25;100.00
13968;BME280;39536;52.198;9.920;2023-05-07T10:04:10;101231.47;;;13.31;100.00
13968;BME280;39536;52.198;9.920;2023-05-07T10:06:37;101235.00;;;13.30;100.00
13968;BME280;39536;52.198;9.920;2023-05-07T10:09:05;101237.16;;;13.44;100.00
13968;BME280;39536;52.198;9.920;2023-05-07T10:11:32;101236.47;;;13.64;100.00
13968;BME280;39536;52.198;9.920;2023-05-07T10:13:59;101234.13;;;13.56;100.00
13968;BME280;39536;52.198;9.920;2023-05-07T10:16:29;101239.38;;;13.56;100.00
13968;BME280;39536;52.198;9.920;2023-05-07T10:18:58;101237.97;;;13.46;100.00
13968;BME280;39536;52.198;9.920;2023-05-07T10:21:26;101238.31;;;13.62;100.00
13968;BME280;39536;52.198;9.920;2023-05-07T10:23:58;101247.94;;;13.61;100.00
13968;BME280;39536;52.198;9.920;2023-05-07T10:26:27;101241.31;;;13.76;100.00
13968;BME280;39536;52.198;9.920;2023-05-07T10:28:59;101240.94;;;13.62;100.00
13968;BME280;39536;52.198;9.920;2023-05-07T10:31:53;101251.13;;;13.70;100.00
13968;BME280;39536;52.198;9.920;2023-05-07T10:34:24;101233.50;;;13.75;100.00
13968;BME280;39536;52.198;9.920;2023-05-07T10:36:53;101242.13;;;13.78;100.00
13968;BME280;39536;52.198;9.920;2023-05-07T10:39:22;101248.50;;;13.70;100.00
13968;BME280;39536;52.198;9.920;2023-05-07T10:41:49;101252.41;;;13.83;100.00
13968;BME280;39536;52.198;9.920;2023-05-07T10:44:25;101246.84;;;13.92;100.00
13968;BME280;39536;52.198;9.920;2023-05-07T10:47:07;101244.63;;;13.81;100.00
13968;BME280;39536;52.198;9.920;2023-05-07T10:49:35;101251.31;;;13.90;100.00
13968;BME280;39536;52.198;9.920;2023-05-07T10:52:12;101250.13;;;13.74;100.00
13968;BME280;39536;52.198;9.920;2023-05-07T10:54:40;101251.56;;;13.82;100.00
13968;BME280;39536;52.198;9.920;2023-05-07T10:57:33;101252.81;;;13.97;100.00
13968;BME280;39536;52.198;9.920;2023-05-07T11:00:02;101255.63;;;14.16;100.00
13968;BME280;39536;52.198;9.920;2023-05-07T11:03:06;101251.47;;;14.34;100.00
13968;BME280;39536;52.198;9.920;2023-05-07T11:05:33;101257.53;;;14.36;100.00
13968;BME280;39536;52.198;9.920;2023-05-07T11:08:00;101258.75;;;14.51;100.00
13968;BME280;39536;52.198;9.920;2023-05-07T11:10:49;101252.88;;;14.68;100.00
13968;BME280;39536;52.198;9.920;2023-05-07T11:13:16;101251.38;;;14.61;100.00
13968;BME280;39536;52.198;9.920;2023-05-07T11:15:44;101257.28;;;14.67;100.00
13968;BME280;39536;52.198;9.920;2023-05-07T11:18:16;101250.31;;;14.66;100.00
13968;BME280;39536;52.198;9.920;2023-05-07T11:20:51;101248.88;;;14.58;100.00
13968;BME280;39536;52.198;9.920;2023-05-07T11:26:45;101256.41;;;14.67;100.00
13968;BME280;39536;52.198;9.920;2023-05-07T11:29:13;101250.25;;;14.68;100.00
13968;BME280;39536;52.198;9.920;2023-05-07T11:31:40;101246.81;;;14.66;100.00
13968;BME280;39536;52.198;9.920;2023-05-07T11:34:09;101252.88;;;14.68;100.00
13968;BME280;39536;52.198;9.920;2023-05-07T11:36:41;101251.47;;;14.59;100.00
13968;BME280;39536;52.198;9.920;2023-05-07T11:39:23;101247.91;;;14.60;100.00
13968;BME280;39536;52.198;9.920;2023-05-07T11:41:50;101259.00;;;14.67;100.00
13968;BME280;39536;52.198;9.920;2023-05-07T11:44:17;101256.69;;;14.59;100.00
13968;BME280;39536;52.198;9.920;2023-05-07T11:46:44;101258.00;;;14.71;100.00
13968;BME280;39536;52.198;9.920;2023-05-07T11:49:12;101255.44;;;14.69;100.00
13968;BME280;39536;52.198;9.920;2023-05-07T11:51:38;101251.16;;;14.89;100.00
13968;BME280;39536;52.198;9.920;2023-05-07T11:54:06;101254.19;;;15.01;100.00
13968;BME280;39536;52.198;9.920;2023-05-07T11:56:34;101257.19;;;15.14;100.00
13968;BME280;39536;52.198;9.920;2023-05-07T11:59:01;101254.91;;;15.27;100.00
13968;BME280;39536;52.198;9.920;2023-05-07T12:01:28;101257.72;;;15.22;100.00
13968;BME280;39536;52.198;9.920;2023-05-07T12:03:54;101259.94;;;15.11;100.00
13968;BME280;39536;52.198;9.920;2023-05-07T12:06:25;101251.50;;;15.25;100.00
13968;BME280;39536;52.198;9.920;2023-05-07T12:08:53;101255.41;;;15.37;100.00
13968;BME280;39536;52.198;9.920;2023-05-07T12:11:23;101260.88;;;15.53;100.00
13968;BME280;39536;52.198;9.920;2023-05-07T12:13:50;101265.38;;;15.71;100.00
13968;BME280;39536;52.198;9.920;2023-05-07T12:16:17;101265.78;;;15.60;100.00
13968;BME280;39536;52.198;9.920;2023-05-07T12:18:45;101269.72;;;15.72;100.00
13968;BME280;39536;52.198;9.920;2023-05-07T12:21:11;101270.56;;;15.73;100.00
13968;BME280;39536;52.198;9.920;2023-05-07T12:23:39;101275.69;;;15.54;100.00
13968;BME280;39536;52.198;9.920;2023-05-07T12:26:06;101269.09;;;15.65;100.00
13968;BME280;39536;52.198;9.920;2023-05-07T12:28:36;101272.03;;;15.80;100.00
13968;BME280;39536;52.198;9.920;2023-05-07T12:31:04;101270.25;;;15.80;100.00
13968;BME280;39536;52.198;9.920;2023-05-07T12:33:31;101272.06;;;15.78;100.00
13968;BME280;39536;52.198;9.920;2023-05-07T12:35:58;101274.34;;;15.65;100.00
13968;BME280;39536;52.198;9.920;2023-05-07T12:38:34;101271.50;;;15.50;100.00
13968;BME280;39536;52.198;9.920;2023-05-07T12:41:02;101272.66;;;15.42;100.00
13968;BME280;39536;52.198;9.920;2023-05-07T12:43:29;101266.53;;;15.64;100.00
13968;BME280;39536;52.198;9.920;2023-05-07T12:45:57;101266.72;;;15.59;100.00